Georgetown, Australia
Current Conditions -  °F | °C
As of 9:30 PM on Thursday 23 Oct 2014 (Local Time) from YBCS Reporting Station
Few Clouds Few Clouds  
Wind Chill: 72°   Ceiling: Unl
Heat Index: 72°   Visibility: 6mi
Dew Point: 64°   Wind: 9mph
Humidity: 78%   Direction: 190°S
Pressure: 30.06"   Gusts: NA
Location:  18.3°S, 143.55°E
Report Text: YBCS 231130Z 19008KT 9999 FEW025 22/18 Q1018
Loading
Personal Weather Stations






























Interactive Weather Map
Tropical Storm Tracking
New forecast layout! Learn more

10-Day Weather Forecast

Advertisements
Track Severe Weather on mobile